createdAt,value
2022-08-26T00:00:07.679Z,18.21
2022-08-26T00:00:18.211Z,18.21
2022-08-26T00:00:28.731Z,18.21
2022-08-26T00:00:39.261Z,18.21
2022-08-26T00:00:49.785Z,18.21
2022-08-26T00:01:00.317Z,18.20
2022-08-26T00:01:10.834Z,18.18
2022-08-26T00:01:29.188Z,18.20
2022-08-26T00:01:32.884Z,18.20
2022-08-26T00:01:44.765Z,18.21
2022-08-26T00:01:53.025Z,18.23
2022-08-26T00:02:03.486Z,18.25
2022-08-26T00:02:14.019Z,18.25
2022-08-26T00:02:24.566Z,18.23
2022-08-26T00:02:35.087Z,18.26
2022-08-26T00:02:45.565Z,18.26
2022-08-26T00:02:56.090Z,18.27
2022-08-26T00:03:06.727Z,18.27
2022-08-26T00:03:17.143Z,18.32
2022-08-26T00:03:27.667Z,18.27
2022-08-26T00:03:38.220Z,18.29
2022-08-26T00:03:48.758Z,18.30
2022-08-26T00:03:59.289Z,18.29
2022-08-26T00:04:09.871Z,18.29
2022-08-26T00:04:20.345Z,18.30
2022-08-26T00:04:30.857Z,18.33
2022-08-26T00:04:41.349Z,18.33
2022-08-26T00:04:51.874Z,18.35
2022-08-26T00:05:02.407Z,18.35
2022-08-26T00:05:12.930Z,18.35
2022-08-26T00:05:23.460Z,18.37
2022-08-26T00:05:33.984Z,18.35
2022-08-26T00:05:44.509Z,18.35
2022-08-26T00:05:55.023Z,18.35
2022-08-26T00:06:05.558Z,18.35
2022-08-26T00:06:16.084Z,18.36
2022-08-26T00:06:26.602Z,18.39
2022-08-26T00:06:37.127Z,18.37
2022-08-26T00:06:47.652Z,18.37
2022-08-26T00:06:58.185Z,18.37
2022-08-26T00:07:08.712Z,18.36
2022-08-26T00:07:19.228Z,18.36
2022-08-26T00:07:29.756Z,18.39
2022-08-26T00:07:40.289Z,18.37
2022-08-26T00:07:50.814Z,18.39
2022-08-26T00:08:01.333Z,18.37
2022-08-26T00:08:13.068Z,18.41
2022-08-26T00:08:22.388Z,18.41
2022-08-26T00:08:32.911Z,18.41
2022-08-26T00:08:43.438Z,18.42
2022-08-26T00:08:53.960Z,18.39
2022-08-26T00:09:04.482Z,18.42
2022-08-26T00:09:16.244Z,18.39
2022-08-26T00:09:25.533Z,18.42
2022-08-26T00:09:37.234Z,18.41
2022-08-26T00:09:47.416Z,18.41
2022-08-26T00:09:57.132Z,18.37
2022-08-26T00:10:07.637Z,18.41
2022-08-26T00:10:18.162Z,18.41
2022-08-26T00:10:28.692Z,18.39
2022-08-26T00:10:39.240Z,18.39
2022-08-26T00:10:49.747Z,18.41
2022-08-26T00:11:00.271Z,18.39
2022-08-26T00:11:10.796Z,18.39
2022-08-26T00:11:26.246Z,18.39
2022-08-26T00:11:32.840Z,18.39
2022-08-26T00:11:42.359Z,18.39
2022-08-26T00:11:52.894Z,18.39
2022-08-26T00:12:03.453Z,18.41
2022-08-26T00:12:13.943Z,18.37
2022-08-26T00:12:35.914Z,18.37
2022-08-26T00:12:37.751Z,18.37
2022-08-26T00:12:45.512Z,18.37
2022-08-26T00:12:56.033Z,18.36
2022-08-26T00:13:06.744Z,18.35
2022-08-26T00:13:19.540Z,18.36
2022-08-26T00:13:27.611Z,18.33
2022-08-26T00:13:38.138Z,18.33
2022-08-26T00:13:49.605Z,18.35
2022-08-26T00:13:59.189Z,18.35
2022-08-26T00:14:09.718Z,18.32
2022-08-26T00:14:20.240Z,18.29
2022-08-26T00:14:31.714Z,18.30
2022-08-26T00:14:41.327Z,18.32
2022-08-26T00:14:51.829Z,18.30
2022-08-26T00:15:02.349Z,18.29
2022-08-26T00:15:12.872Z,18.29
2022-08-26T00:15:23.396Z,18.27
2022-08-26T00:15:33.927Z,18.27
2022-08-26T00:15:44.445Z,18.26
2022-08-26T00:15:54.971Z,18.23
2022-08-26T00:16:05.590Z,18.25
2022-08-26T00:16:16.048Z,18.25
2022-08-26T00:16:26.635Z,18.23
2022-08-26T00:16:37.105Z,18.23
2022-08-26T00:16:49.014Z,18.18
2022-08-26T00:16:58.172Z,18.25
2022-08-26T00:17:08.785Z,18.20
2022-08-26T00:17:19.171Z,18.20
2022-08-26T00:17:29.694Z,18.18
2022-08-26T00:17:40.489Z,18.17
2022-08-26T00:17:50.739Z,18.15
2022-08-26T00:18:01.264Z,18.12
2022-08-26T00:18:22.420Z,18.12
2022-08-26T00:18:23.328Z,18.11
2022-08-26T00:18:33.196Z,18.10
2022-08-26T00:18:44.369Z,18.11
2022-08-26T00:18:53.902Z,18.08
2022-08-26T00:19:04.415Z,18.07
2022-08-26T00:19:14.940Z,18.07
2022-08-26T00:19:25.468Z,18.05
2022-08-26T00:19:35.999Z,18.03
2022-08-26T00:19:46.517Z,18.02
2022-08-26T00:19:57.038Z,18.02
2022-08-26T00:20:07.566Z,18.00
2022-08-26T00:20:18.087Z,17.99
2022-08-26T00:20:28.628Z,17.97
2022-08-26T00:20:39.137Z,17.99
2022-08-26T00:20:49.699Z,17.97
2022-08-26T00:21:00.189Z,17.93
2022-08-26T00:21:11.718Z,17.95
2022-08-26T00:21:21.242Z,17.92
2022-08-26T00:21:31.768Z,17.92
2022-08-26T00:21:42.289Z,17.92
2022-08-26T00:21:52.818Z,17.89
2022-08-26T00:22:03.340Z,17.92
2022-08-26T00:22:13.885Z,17.89
2022-08-26T00:22:25.391Z,17.90
2022-08-26T00:22:34.918Z,17.89
2022-08-26T00:22:45.438Z,17.89
2022-08-26T00:22:55.967Z,17.89
2022-08-26T00:23:06.647Z,17.89
2022-08-26T00:23:17.017Z,17.86
2022-08-26T00:23:28.851Z,17.86
2022-08-26T00:23:38.067Z,17.86
2022-08-26T00:23:48.598Z,17.86
2022-08-26T00:23:59.120Z,17.82
2022-08-26T00:24:09.641Z,17.84
2022-08-26T00:24:20.166Z,17.84
2022-08-26T00:24:30.685Z,17.81
2022-08-26T00:24:41.216Z,17.81
2022-08-26T00:24:52.741Z,17.81
2022-08-26T00:25:02.269Z,17.81
2022-08-26T00:25:12.794Z,17.81
2022-08-26T00:25:23.314Z,17.82
2022-08-26T00:25:33.836Z,17.82
2022-08-26T00:25:44.379Z,17.81
2022-08-26T00:25:54.885Z,17.79
2022-08-26T00:26:05.408Z,17.79
2022-08-26T00:26:15.932Z,17.79
2022-08-26T00:26:28.581Z,17.78
2022-08-26T00:26:36.982Z,17.78
2022-08-26T00:26:47.515Z,17.78
2022-08-26T00:26:58.033Z,17.77
2022-08-26T00:27:08.584Z,17.79
2022-08-26T00:27:19.088Z,17.78
2022-08-26T00:27:29.609Z,17.78
2022-08-26T00:27:40.138Z,17.77
2022-08-26T00:27:50.662Z,17.75
2022-08-26T00:28:01.184Z,17.77
2022-08-26T00:28:11.714Z,17.77
2022-08-26T00:28:22.237Z,17.74
2022-08-26T00:28:32.764Z,17.75
2022-08-26T00:28:43.289Z,17.72
2022-08-26T00:28:53.815Z,17.74
2022-08-26T00:29:04.338Z,17.75
2022-08-26T00:29:14.965Z,17.75
2022-08-26T00:29:25.388Z,17.77
2022-08-26T00:29:37.451Z,17.72
2022-08-26T00:29:46.442Z,17.72
2022-08-26T00:29:56.971Z,17.72
2022-08-26T00:30:07.492Z,17.72
2022-08-26T00:30:18.014Z,17.72
2022-08-26T00:30:28.543Z,17.70
2022-08-26T00:30:39.065Z,17.71
2022-08-26T00:30:52.115Z,17.71
2022-08-26T00:31:00.119Z,17.70
2022-08-26T00:31:11.103Z,17.71
2022-08-26T00:31:21.212Z,17.68
2022-08-26T00:31:31.720Z,17.68
2022-08-26T00:31:42.327Z,17.71
2022-08-26T00:31:52.793Z,17.70
2022-08-26T00:32:04.092Z,17.68
2022-08-26T00:32:13.790Z,17.68
2022-08-26T00:32:24.314Z,17.70
2022-08-26T00:32:34.856Z,17.70
2022-08-26T00:32:46.388Z,17.68
2022-08-26T00:32:55.910Z,17.70
2022-08-26T00:33:06.677Z,17.68
2022-08-26T00:33:16.943Z,17.68
2022-08-26T00:33:27.475Z,17.66
2022-08-26T00:33:37.997Z,17.66
2022-08-26T00:33:48.521Z,17.63
2022-08-26T00:33:59.044Z,17.64
2022-08-26T00:34:09.731Z,17.64
2022-08-26T00:34:20.115Z,17.66
2022-08-26T00:34:30.628Z,17.63
2022-08-26T00:34:41.144Z,17.63
2022-08-26T00:34:51.691Z,17.64
2022-08-26T00:35:02.195Z,17.63
2022-08-26T00:35:12.729Z,17.63
2022-08-26T00:35:23.251Z,17.62
2022-08-26T00:35:33.785Z,17.62
2022-08-26T00:35:45.316Z,17.63
2022-08-26T00:35:54.819Z,17.63
2022-08-26T00:36:05.343Z,17.64
2022-08-26T00:36:20.399Z,17.64
2022-08-26T00:36:29.589Z,17.64
2022-08-26T00:36:36.921Z,17.64
2022-08-26T00:36:47.440Z,17.63
2022-08-26T00:36:57.964Z,17.63
2022-08-26T00:37:09.026Z,17.64
2022-08-26T00:37:19.041Z,17.64
2022-08-26T00:37:29.539Z,17.64
2022-08-26T00:37:40.068Z,17.62
2022-08-26T00:37:50.590Z,17.64
2022-08-26T00:38:01.114Z,17.63
2022-08-26T00:38:11.633Z,17.63
2022-08-26T00:38:22.165Z,17.64
2022-08-26T00:38:32.687Z,17.64
2022-08-26T00:38:43.219Z,17.68
2022-08-26T00:38:53.736Z,17.62
2022-08-26T00:39:04.268Z,17.62
2022-08-26T00:39:14.791Z,17.63
2022-08-26T00:39:25.321Z,17.63
2022-08-26T00:39:35.840Z,17.63
2022-08-26T00:39:46.424Z,17.63
2022-08-26T00:39:56.912Z,17.63
2022-08-26T00:40:07.459Z,17.63
2022-08-26T00:40:18.045Z,17.63
2022-08-26T00:40:28.518Z,17.62
2022-08-26T00:40:38.987Z,17.64
2022-08-26T00:40:49.541Z,17.62
2022-08-26T00:41:00.034Z,17.62
2022-08-26T00:41:10.560Z,17.59
2022-08-26T00:41:21.087Z,17.63
2022-08-26T00:41:31.616Z,17.62
2022-08-26T00:41:42.138Z,17.62
2022-08-26T00:41:52.669Z,17.63
2022-08-26T00:42:03.196Z,17.63
2022-08-26T00:42:13.708Z,17.63
2022-08-26T00:42:24.237Z,17.63
2022-08-26T00:42:34.770Z,17.64
2022-08-26T00:42:45.914Z,17.62
2022-08-26T00:42:55.817Z,17.64
2022-08-26T00:43:07.111Z,17.62
2022-08-26T00:43:16.860Z,17.63
2022-08-26T00:43:27.382Z,17.64
2022-08-26T00:43:47.251Z,17.62
2022-08-26T00:43:49.429Z,17.63
2022-08-26T00:43:58.959Z,17.62
2022-08-26T00:44:09.490Z,17.64
2022-08-26T00:44:20.009Z,17.63
2022-08-26T00:44:30.581Z,17.63
2022-08-26T00:44:41.061Z,17.63
2022-08-26T00:44:51.578Z,17.63
2022-08-26T00:45:02.113Z,17.63
2022-08-26T00:45:13.627Z,17.63
2022-08-26T00:45:23.302Z,17.62
2022-08-26T00:45:33.720Z,17.64
2022-08-26T00:45:44.275Z,17.63
2022-08-26T00:45:54.762Z,17.66
2022-08-26T00:46:05.262Z,17.62
2022-08-26T00:46:15.918Z,17.62
2022-08-26T00:46:26.293Z,17.63
2022-08-26T00:46:36.825Z,17.63
2022-08-26T00:46:47.352Z,17.64
2022-08-26T00:46:57.864Z,17.62
2022-08-26T00:47:08.398Z,17.64
2022-08-26T00:47:18.919Z,17.64
2022-08-26T00:47:31.273Z,17.64
2022-08-26T00:47:39.967Z,17.66
2022-08-26T00:47:50.491Z,17.66
2022-08-26T00:48:01.015Z,17.64
2022-08-26T00:48:11.548Z,17.66
2022-08-26T00:48:22.067Z,17.66
2022-08-26T00:48:32.589Z,17.66
2022-08-26T00:48:43.114Z,17.70
2022-08-26T00:48:53.643Z,17.68
2022-08-26T00:49:04.163Z,17.71
2022-08-26T00:49:15.687Z,17.72
2022-08-26T00:49:25.213Z,17.71
2022-08-26T00:49:35.757Z,17.74
2022-08-26T00:49:46.261Z,17.75
2022-08-26T00:49:56.788Z,17.77
2022-08-26T00:50:07.312Z,17.74
2022-08-26T00:50:17.839Z,17.77
2022-08-26T00:50:28.368Z,17.77
2022-08-26T00:50:38.893Z,17.77
2022-08-26T00:50:49.411Z,17.77
2022-08-26T00:50:59.942Z,17.79
2022-08-26T00:51:10.462Z,17.81
2022-08-26T00:51:20.986Z,17.78
2022-08-26T00:51:31.507Z,17.78
2022-08-26T00:51:42.031Z,17.79
2022-08-26T00:51:52.558Z,17.78
2022-08-26T00:52:03.096Z,17.79
2022-08-26T00:52:13.609Z,17.77
2022-08-26T00:52:24.133Z,17.79
2022-08-26T00:52:34.668Z,17.78
2022-08-26T00:52:45.178Z,17.77
2022-08-26T00:52:55.708Z,17.78
2022-08-26T00:53:06.398Z,17.78
2022-08-26T00:53:16.750Z,17.77
2022-08-26T00:53:27.981Z,17.78
2022-08-26T00:53:37.797Z,17.78
2022-08-26T00:53:48.340Z,17.78
2022-08-26T00:53:58.845Z,17.77
2022-08-26T00:54:10.796Z,17.78
2022-08-26T00:54:19.894Z,17.78
2022-08-26T00:54:30.463Z,17.78
2022-08-26T00:54:42.421Z,17.79
2022-08-26T00:54:51.468Z,17.77
2022-08-26T00:55:01.986Z,17.78
2022-08-26T00:55:12.518Z,17.77
2022-08-26T00:55:24.044Z,17.78
2022-08-26T00:55:38.064Z,17.77
2022-08-26T00:55:44.088Z,17.78
2022-08-26T00:55:54.621Z,17.78
2022-08-26T00:56:05.138Z,17.81
2022-08-26T00:56:15.668Z,17.78
2022-08-26T00:56:26.190Z,17.79
2022-08-26T00:56:36.713Z,17.79
2022-08-26T00:56:47.231Z,17.81
2022-08-26T00:56:57.762Z,17.82
2022-08-26T00:57:08.722Z,17.81
2022-08-26T00:57:19.807Z,17.81
2022-08-26T00:57:29.345Z,17.82
2022-08-26T00:57:39.862Z,17.81
2022-08-26T00:57:50.381Z,17.82
2022-08-26T00:58:00.914Z,17.79
2022-08-26T00:58:11.437Z,17.78
2022-08-26T00:58:21.963Z,17.78
2022-08-26T00:58:32.483Z,17.78
2022-08-26T00:58:43.005Z,17.77
2022-08-26T00:58:53.526Z,17.77
2022-08-26T00:59:04.256Z,17.74
2022-08-26T00:59:14.575Z,17.72
2022-08-26T00:59:25.132Z,17.74
2022-08-26T00:59:35.619Z,17.72
2022-08-26T00:59:46.157Z,17.71
2022-08-26T00:59:56.676Z,17.70
2022-08-26T01:00:07.192Z,17.68
2022-08-26T01:00:17.717Z,17.64
2022-08-26T01:00:28.241Z,17.64
2022-08-26T01:00:38.817Z,17.64
2022-08-26T01:00:49.346Z,17.63
2022-08-26T01:00:59.893Z,17.63
2022-08-26T01:01:10.412Z,17.62
2022-08-26T01:01:23.148Z,17.59
2022-08-26T01:01:31.414Z,17.59
2022-08-26T01:01:41.910Z,17.58
2022-08-26T01:01:52.459Z,17.58
2022-08-26T01:02:03.232Z,17.55
2022-08-26T01:02:20.223Z,17.55
2022-08-26T01:02:25.082Z,17.54
2022-08-26T01:02:34.559Z,17.54
2022-08-26T01:02:46.872Z,17.54
2022-08-26T01:02:55.578Z,17.55
2022-08-26T01:03:07.579Z,17.52
2022-08-26T01:03:17.627Z,17.52
2022-08-26T01:03:27.179Z,17.52
2022-08-26T01:03:37.673Z,17.48
2022-08-26T01:03:48.200Z,17.48
2022-08-26T01:03:58.726Z,17.48
2022-08-26T01:04:09.243Z,17.48
2022-08-26T01:04:19.770Z,17.49
2022-08-26T01:04:30.294Z,17.52
2022-08-26T01:04:40.844Z,17.54
2022-08-26T01:04:55.930Z,17.52
2022-08-26T01:05:03.460Z,17.51
2022-08-26T01:05:12.383Z,17.52
2022-08-26T01:05:22.929Z,17.52
2022-08-26T01:05:33.428Z,17.54
2022-08-26T01:05:43.951Z,17.55
2022-08-26T01:05:54.477Z,17.52
2022-08-26T01:06:05.002Z,17.52
2022-08-26T01:06:16.521Z,17.49
2022-08-26T01:06:26.049Z,17.48
2022-08-26T01:06:36.566Z,17.48
2022-08-26T01:06:47.124Z,17.48
2022-08-26T01:06:57.616Z,17.46
2022-08-26T01:07:08.145Z,17.46
2022-08-26T01:07:18.672Z,17.46
2022-08-26T01:07:30.061Z,17.43
2022-08-26T01:07:39.707Z,17.44
2022-08-26T01:07:50.227Z,17.43
2022-08-26T01:08:00.757Z,17.43
2022-08-26T01:08:11.278Z,17.43
2022-08-26T01:08:21.802Z,17.43
2022-08-26T01:08:32.322Z,17.43
2022-08-26T01:08:42.857Z,17.43
2022-08-26T01:08:53.371Z,17.41
2022-08-26T01:09:03.897Z,17.43
2022-08-26T01:09:14.416Z,17.43
2022-08-26T01:09:24.947Z,17.43
2022-08-26T01:09:35.461Z,17.43
2022-08-26T01:09:45.987Z,17.41
2022-08-26T01:09:56.510Z,17.41
2022-08-26T01:10:07.033Z,17.40
2022-08-26T01:10:17.558Z,17.43
2022-08-26T01:10:28.090Z,17.38
2022-08-26T01:10:38.613Z,17.40
2022-08-26T01:10:49.129Z,17.40
2022-08-26T01:10:59.647Z,17.41
2022-08-26T01:11:10.179Z,17.37
2022-08-26T01:11:20.695Z,17.37
2022-08-26T01:11:31.229Z,17.37
2022-08-26T01:11:41.769Z,17.37
2022-08-26T01:11:52.272Z,17.37
2022-08-26T01:12:02.797Z,17.33
2022-08-26T01:12:13.312Z,17.36
2022-08-26T01:12:23.833Z,17.34
2022-08-26T01:12:34.386Z,17.36
2022-08-26T01:12:44.890Z,17.36
2022-08-26T01:12:55.407Z,17.37
2022-08-26T01:13:06.232Z,17.37
2022-08-26T01:13:16.460Z,17.38
2022-08-26T01:13:26.971Z,17.36
2022-08-26T01:13:37.495Z,17.38
2022-08-26T01:13:48.019Z,17.38
2022-08-26T01:13:58.544Z,17.37
2022-08-26T01:14:09.065Z,17.36
2022-08-26T01:14:19.594Z,17.37
2022-08-26T01:14:30.111Z,17.36
2022-08-26T01:14:40.628Z,17.36
2022-08-26T01:14:51.157Z,17.33
2022-08-26T01:15:01.684Z,17.33
2022-08-26T01:15:12.195Z,17.33
2022-08-26T01:15:22.719Z,17.30
2022-08-26T01:15:33.251Z,17.30
2022-08-26T01:15:43.761Z,17.30
2022-08-26T01:15:54.283Z,17.26
2022-08-26T01:16:04.912Z,17.26
2022-08-26T01:16:15.398Z,17.23
2022-08-26T01:16:25.948Z,17.28
2022-08-26T01:16:36.418Z,17.28
2022-08-26T01:16:46.953Z,17.26
2022-08-26T01:16:57.445Z,17.25
2022-08-26T01:17:07.950Z,17.26
2022-08-26T01:17:18.460Z,17.28
2022-08-26T01:17:28.982Z,17.26
2022-08-26T01:17:39.508Z,17.26
2022-08-26T01:17:50.032Z,17.25
2022-08-26T01:18:00.549Z,17.25
2022-08-26T01:18:11.071Z,17.23
2022-08-26T01:18:21.594Z,17.22
2022-08-26T01:18:32.115Z,17.23
2022-08-26T01:18:42.657Z,17.22
2022-08-26T01:18:53.165Z,17.23
2022-08-26T01:19:03.698Z,17.22
2022-08-26T01:19:14.222Z,17.22
2022-08-26T01:19:24.734Z,17.22
2022-08-26T01:19:35.262Z,17.22
2022-08-26T01:19:45.775Z,17.19
2022-08-26T01:19:56.296Z,17.19
2022-08-26T01:20:06.883Z,17.21
2022-08-26T01:20:17.338Z,17.16
2022-08-26T01:20:27.867Z,17.18
2022-08-26T01:20:38.386Z,17.19
2022-08-26T01:20:48.908Z,17.15
2022-08-26T01:20:59.429Z,17.18
2022-08-26T01:21:09.953Z,17.16
2022-08-26T01:21:20.482Z,17.16
2022-08-26T01:21:30.996Z,17.14
2022-08-26T01:21:41.521Z,17.15
2022-08-26T01:21:52.039Z,17.14
2022-08-26T01:22:02.566Z,17.15
2022-08-26T01:22:13.087Z,17.14
2022-08-26T01:22:26.720Z,17.12
2022-08-26T01:22:35.137Z,17.12
2022-08-26T01:22:44.683Z,17.14
2022-08-26T01:22:55.183Z,17.14
2022-08-26T01:23:05.820Z,17.12
2022-08-26T01:23:16.221Z,17.12
2022-08-26T01:23:26.750Z,17.14
2022-08-26T01:23:37.272Z,17.12
2022-08-26T01:23:47.803Z,17.14
2022-08-26T01:23:58.328Z,17.14
2022-08-26T01:24:08.830Z,17.16
2022-08-26T01:24:19.354Z,17.15
2022-08-26T01:24:29.880Z,17.16
2022-08-26T01:24:40.396Z,17.15
2022-08-26T01:24:50.928Z,17.15
2022-08-26T01:25:03.641Z,17.15
2022-08-26T01:25:11.972Z,17.12
2022-08-26T01:25:22.486Z,17.15
2022-08-26T01:25:33.010Z,17.14
2022-08-26T01:25:43.529Z,17.15
2022-08-26T01:25:54.074Z,17.15
2022-08-26T01:26:04.576Z,17.14
2022-08-26T01:26:19.679Z,17.12
2022-08-26T01:26:26.624Z,17.14
2022-08-26T01:26:36.143Z,17.15
2022-08-26T01:26:46.672Z,17.12
2022-08-26T01:26:57.192Z,17.14
2022-08-26T01:27:07.705Z,17.14
2022-08-26T01:27:18.235Z,17.12
2022-08-26T01:27:28.754Z,17.16
2022-08-26T01:27:39.281Z,17.15
2022-08-26T01:27:49.806Z,17.16
2022-08-26T01:28:00.326Z,17.18
2022-08-26T01:28:10.866Z,17.16
2022-08-26T01:28:21.378Z,17.18
2022-08-26T01:28:31.892Z,17.18
2022-08-26T01:28:42.419Z,17.18
2022-08-26T01:28:52.938Z,17.18
2022-08-26T01:29:03.460Z,17.19
2022-08-26T01:29:13.978Z,17.18
2022-08-26T01:29:24.502Z,17.18
2022-08-26T01:29:35.031Z,17.16
2022-08-26T01:29:45.548Z,17.19
2022-08-26T01:29:56.067Z,17.15
2022-08-26T01:30:06.591Z,17.18
2022-08-26T01:30:17.108Z,17.18
2022-08-26T01:30:27.629Z,17.19
2022-08-26T01:30:38.148Z,17.21
2022-08-26T01:30:48.674Z,17.21
2022-08-26T01:30:59.198Z,17.19
2022-08-26T01:31:09.745Z,17.19
2022-08-26T01:31:20.267Z,17.18
2022-08-26T01:31:30.814Z,17.19
2022-08-26T01:31:41.356Z,17.19
2022-08-26T01:31:51.832Z,17.22
2022-08-26T01:32:02.329Z,17.22
2022-08-26T01:32:12.849Z,17.19
2022-08-26T01:32:23.465Z,17.21
2022-08-26T01:32:33.893Z,17.19
2022-08-26T01:32:44.415Z,17.21
2022-08-26T01:32:54.935Z,17.19
2022-08-26T01:33:05.472Z,17.18
2022-08-26T01:33:16.022Z,17.16
2022-08-26T01:33:26.505Z,17.18
2022-08-26T01:33:42.159Z,17.18
2022-08-26T01:33:48.550Z,17.18
2022-08-26T01:33:58.081Z,17.16
2022-08-26T01:34:09.055Z,17.15
2022-08-26T01:34:19.717Z,17.15
2022-08-26T01:34:29.638Z,17.14
2022-08-26T01:34:40.158Z,17.16
2022-08-26T01:34:50.684Z,17.14
2022-08-26T01:35:01.207Z,17.15
2022-08-26T01:35:11.735Z,17.14
2022-08-26T01:35:22.253Z,17.11
2022-08-26T01:35:32.775Z,17.15
2022-08-26T01:35:43.294Z,17.12
2022-08-26T01:35:53.822Z,17.12
2022-08-26T01:36:04.334Z,17.14
2022-08-26T01:36:14.858Z,17.11
2022-08-26T01:36:25.380Z,17.11
2022-08-26T01:36:35.905Z,17.11
2022-08-26T01:36:51.086Z,17.08
2022-08-26T01:36:57.981Z,17.07
2022-08-26T01:37:07.470Z,17.07
2022-08-26T01:37:17.987Z,17.07
2022-08-26T01:37:28.510Z,17.07
2022-08-26T01:37:40.511Z,17.06
2022-08-26T01:37:49.547Z,17.06
2022-08-26T01:38:00.092Z,17.07
2022-08-26T01:38:10.595Z,17.07
2022-08-26T01:38:21.112Z,17.08
2022-08-26T01:38:31.692Z,17.11
2022-08-26T01:38:42.152Z,17.11
2022-08-26T01:38:52.691Z,17.08
2022-08-26T01:39:03.209Z,17.11
2022-08-26T01:39:13.722Z,17.08
2022-08-26T01:39:24.238Z,17.07
2022-08-26T01:39:34.763Z,17.08
2022-08-26T01:39:45.291Z,17.08
2022-08-26T01:39:55.869Z,17.07
2022-08-26T01:40:06.375Z,17.08
2022-08-26T01:40:17.049Z,17.11
2022-08-26T01:40:27.462Z,17.08
2022-08-26T01:40:37.896Z,17.07
2022-08-26T01:40:48.415Z,17.06
2022-08-26T01:40:58.935Z,17.07
2022-08-26T01:41:16.354Z,17.07
2022-08-26T01:41:27.487Z,17.07
2022-08-26T01:41:31.507Z,17.06
2022-08-26T01:41:41.026Z,17.06
2022-08-26T01:41:53.574Z,17.04
2022-08-26T01:42:03.210Z,17.04
2022-08-26T01:42:12.617Z,17.06
2022-08-26T01:42:23.123Z,17.04
2022-08-26T01:42:33.643Z,17.03
2022-08-26T01:42:44.158Z,17.01
2022-08-26T01:42:54.683Z,17.01
2022-08-26T01:43:05.257Z,17.01
2022-08-26T01:43:15.722Z,17.00
2022-08-26T01:43:26.247Z,17.00
2022-08-26T01:43:36.773Z,17.03
2022-08-26T01:43:47.289Z,17.00
2022-08-26T01:43:58.000Z,16.97
2022-08-26T01:44:09.701Z,16.97
2022-08-26T01:44:18.857Z,16.98
2022-08-26T01:44:29.387Z,16.97
2022-08-26T01:44:39.910Z,16.96
2022-08-26T01:44:50.413Z,16.96
2022-08-26T01:45:00.968Z,16.97
2022-08-26T01:45:11.472Z,16.96
2022-08-26T01:45:21.979Z,16.94
2022-08-26T01:45:32.539Z,16.94
2022-08-26T01:45:43.090Z,16.94
2022-08-26T01:45:53.586Z,16.91
2022-08-26T01:46:04.091Z,16.93
2022-08-26T01:46:14.607Z,16.94
2022-08-26T01:46:25.121Z,16.93
2022-08-26T01:46:35.644Z,16.91
2022-08-26T01:46:46.151Z,16.93
2022-08-26T01:46:56.700Z,16.88
2022-08-26T01:47:07.207Z,16.91
2022-08-26T01:47:17.781Z,16.89
2022-08-26T01:47:28.235Z,16.88
2022-08-26T01:47:38.763Z,16.89
2022-08-26T01:47:49.280Z,16.93
2022-08-26T01:48:00.804Z,16.89
2022-08-26T01:48:10.321Z,16.89
2022-08-26T01:48:20.843Z,16.91
2022-08-26T01:48:31.364Z,16.91
2022-08-26T01:48:41.887Z,16.93
2022-08-26T01:48:54.515Z,16.91
2022-08-26T01:49:02.935Z,16.93
2022-08-26T01:49:13.443Z,16.91
2022-08-26T01:49:23.967Z,16.91
2022-08-26T01:49:34.512Z,16.91
2022-08-26T01:49:45.010Z,16.94
2022-08-26T01:49:55.533Z,16.93
2022-08-26T01:50:06.092Z,16.94
2022-08-26T01:50:27.750Z,16.94
2022-08-26T01:50:30.317Z,16.94
2022-08-26T01:50:37.623Z,16.96
2022-08-26T01:50:48.151Z,16.94
2022-08-26T01:50:58.676Z,16.94
2022-08-26T01:51:09.188Z,16.96
2022-08-26T01:51:19.711Z,16.94
2022-08-26T01:51:30.235Z,16.94
2022-08-26T01:51:40.753Z,16.94
2022-08-26T01:51:51.275Z,16.93
2022-08-26T01:52:01.803Z,16.93
2022-08-26T01:52:12.319Z,16.93
2022-08-26T01:52:22.846Z,16.91
2022-08-26T01:52:33.361Z,16.91
2022-08-26T01:52:43.897Z,16.93
2022-08-26T01:52:54.924Z,16.93
2022-08-26T01:53:05.000Z,16.93
2022-08-26T01:53:15.446Z,16.93
2022-08-26T01:53:25.970Z,16.91
2022-08-26T01:53:36.495Z,16.91
2022-08-26T01:53:47.017Z,16.93
2022-08-26T01:53:57.537Z,16.91
2022-08-26T01:54:08.066Z,16.94
2022-08-26T01:54:20.454Z,16.93
2022-08-26T01:54:29.109Z,16.96
2022-08-26T01:54:39.626Z,16.94
2022-08-26T01:54:50.458Z,16.96
2022-08-26T01:55:00.672Z,16.94
2022-08-26T01:55:11.220Z,16.94
2022-08-26T01:55:29.321Z,16.93
2022-08-26T01:55:34.020Z,16.91
2022-08-26T01:55:42.760Z,16.93
2022-08-26T01:55:53.280Z,16.93
2022-08-26T01:56:03.803Z,16.94
2022-08-26T01:56:14.324Z,16.91
2022-08-26T01:56:24.845Z,16.91
2022-08-26T01:56:36.666Z,16.93
2022-08-26T01:56:45.892Z,16.93
2022-08-26T01:56:56.410Z,16.94
2022-08-26T01:57:06.929Z,16.93
2022-08-26T01:57:17.455Z,16.94
2022-08-26T01:57:27.977Z,16.93
2022-08-26T01:57:38.505Z,16.93
2022-08-26T01:57:49.020Z,16.94
2022-08-26T01:57:59.539Z,16.93
2022-08-26T01:58:10.064Z,16.94
2022-08-26T01:58:20.587Z,16.94
2022-08-26T01:58:31.103Z,16.96
2022-08-26T01:58:41.628Z,16.96
2022-08-26T01:58:52.149Z,16.94
2022-08-26T01:59:02.667Z,16.91
2022-08-26T01:59:13.188Z,16.93
2022-08-26T01:59:23.719Z,16.91
2022-08-26T01:59:34.232Z,16.93
2022-08-26T01:59:44.762Z,16.94
2022-08-26T01:59:55.280Z,16.93
2022-08-26T02:00:05.805Z,16.91
2022-08-26T02:00:16.344Z,16.91
2022-08-26T02:00:27.240Z,16.93
2022-08-26T02:00:37.378Z,16.93
2022-08-26T02:00:47.949Z,16.94
2022-08-26T02:00:58.507Z,16.93
2022-08-26T02:01:09.638Z,16.93
2022-08-26T02:01:19.480Z,16.93
2022-08-26T02:01:29.981Z,16.91
2022-08-26T02:01:40.499Z,16.93
2022-08-26T02:01:51.025Z,16.93
2022-08-26T02:02:01.542Z,16.94
2022-08-26T02:02:12.058Z,16.94
2022-08-26T02:02:22.579Z,16.94
2022-08-26T02:02:33.109Z,16.93
2022-08-26T02:02:43.624Z,16.94
2022-08-26T02:02:54.149Z,16.96
2022-08-26T02:03:04.675Z,16.98
2022-08-26T02:03:15.195Z,16.96
2022-08-26T02:03:25.761Z,16.96
2022-08-26T02:03:36.291Z,16.96
2022-08-26T02:03:46.757Z,16.97
2022-08-26T02:03:57.277Z,16.98
2022-08-26T02:04:07.840Z,16.94
2022-08-26T02:04:18.343Z,16.97
2022-08-26T02:04:28.872Z,16.97
2022-08-26T02:04:39.409Z,17.00
2022-08-26T02:04:50.071Z,17.01
2022-08-26T02:05:00.517Z,17.00
2022-08-26T02:05:10.929Z,17.00
2022-08-26T02:05:21.457Z,17.01
2022-08-26T02:05:31.968Z,17.01
2022-08-26T02:05:42.494Z,17.03
2022-08-26T02:05:53.015Z,17.03
2022-08-26T02:06:03.559Z,17.03
2022-08-26T02:06:14.057Z,17.01
2022-08-26T02:06:24.586Z,17.01
2022-08-26T02:06:35.098Z,17.04
2022-08-26T02:06:45.624Z,17.04
2022-08-26T02:06:56.143Z,17.04
2022-08-26T02:07:06.673Z,17.03
2022-08-26T02:07:17.191Z,17.04
2022-08-26T02:07:27.715Z,17.07
2022-08-26T02:07:38.231Z,17.04
2022-08-26T02:07:48.764Z,17.03
2022-08-26T02:07:59.269Z,17.01
2022-08-26T02:08:09.800Z,17.01
2022-08-26T02:08:24.443Z,16.98
2022-08-26T02:08:30.839Z,16.98
2022-08-26T02:08:41.363Z,16.98
2022-08-26T02:08:51.881Z,17.00
2022-08-26T02:09:02.418Z,16.97
2022-08-26T02:09:12.928Z,16.97
2022-08-26T02:09:23.474Z,16.94
2022-08-26T02:09:33.970Z,16.94
2022-08-26T02:09:45.490Z,16.91
2022-08-26T02:09:55.013Z,16.93
2022-08-26T02:10:05.528Z,16.88
2022-08-26T02:10:16.051Z,16.91
2022-08-26T02:10:26.583Z,16.86
2022-08-26T02:10:37.100Z,16.86
2022-08-26T02:10:47.619Z,16.85
2022-08-26T02:10:58.141Z,16.85
2022-08-26T02:11:08.654Z,16.83
2022-08-26T02:11:19.176Z,16.85
2022-08-26T02:11:29.691Z,16.82
2022-08-26T02:11:40.219Z,16.82
2022-08-26T02:11:51.072Z,16.82
2022-08-26T02:12:01.262Z,16.79
2022-08-26T02:12:11.786Z,16.78
2022-08-26T02:12:22.357Z,16.78
2022-08-26T02:12:32.821Z,16.78
2022-08-26T02:12:43.351Z,16.78
2022-08-26T02:12:53.899Z,16.79
2022-08-26T02:13:04.416Z,16.78
2022-08-26T02:13:14.904Z,16.78
2022-08-26T02:13:25.434Z,16.78
2022-08-26T02:13:35.949Z,16.75
2022-08-26T02:13:46.479Z,16.76
2022-08-26T02:13:56.990Z,16.75
2022-08-26T02:14:07.507Z,16.73
2022-08-26T02:14:18.034Z,16.75
2022-08-26T02:14:28.557Z,16.75
2022-08-26T02:14:43.512Z,16.70
2022-08-26T02:14:49.601Z,16.71
2022-08-26T02:15:00.124Z,16.71
2022-08-26T02:15:11.144Z,16.70
2022-08-26T02:15:21.173Z,16.71
2022-08-26T02:15:31.690Z,16.71